sensor_id;sensor_type;location;lat;lon;timestamp;P1;durP1;ratioP1;P2;durP2;ratioP2
69565;SDS011;56777;55.930;37.524;2023-12-07T00:01:19;13.68;;;6.25;;
69565;SDS011;56777;55.930;37.524;2023-12-07T00:03:45;17.55;;;6.88;;
69565;SDS011;56777;55.930;37.524;2023-12-07T00:06:10;15.15;;;6.05;;
69565;SDS011;56777;55.930;37.524;2023-12-07T00:08:36;17.95;;;7.57;;
69565;SDS011;56777;55.930;37.524;2023-12-07T00:11:02;14.60;;;7.50;;
69565;SDS011;56777;55.930;37.524;2023-12-07T00:13:27;13.85;;;6.10;;
69565;SDS011;56777;55.930;37.524;2023-12-07T00:15:53;16.52;;;6.63;;
69565;SDS011;56777;55.930;37.524;2023-12-07T00:18:18;16.67;;;6.53;;
69565;SDS011;56777;55.930;37.524;2023-12-07T00:20:44;15.55;;;7.50;;
69565;SDS011;56777;55.930;37.524;2023-12-07T00:23:10;20.33;;;7.03;;
69565;SDS011;56777;55.930;37.524;2023-12-07T00:25:36;17.25;;;8.07;;
69565;SDS011;56777;55.930;37.524;2023-12-07T00:28:01;14.50;;;6.00;;
69565;SDS011;56777;55.930;37.524;2023-12-07T00:30:28;15.50;;;6.45;;
69565;SDS011;56777;55.930;37.524;2023-12-07T00:32:53;14.90;;;7.10;;
69565;SDS011;56777;55.930;37.524;2023-12-07T00:35:19;14.43;;;5.40;;
69565;SDS011;56777;55.930;37.524;2023-12-07T00:37:47;17.58;;;7.85;;
69565;SDS011;56777;55.930;37.524;2023-12-07T00:40:13;14.30;;;6.78;;
69565;SDS011;56777;55.930;37.524;2023-12-07T00:42:39;14.55;;;5.80;;
69565;SDS011;56777;55.930;37.524;2023-12-07T00:45:05;16.58;;;7.60;;
69565;SDS011;56777;55.930;37.524;2023-12-07T00:47:31;16.48;;;7.10;;
69565;SDS011;56777;55.930;37.524;2023-12-07T00:49:56;14.98;;;5.95;;
69565;SDS011;56777;55.930;37.524;2023-12-07T00:52:22;16.30;;;7.82;;
69565;SDS011;56777;55.930;37.524;2023-12-07T00:54:47;15.02;;;6.13;;
69565;SDS011;56777;55.930;37.524;2023-12-07T00:57:13;18.02;;;6.60;;
69565;SDS011;56777;55.930;37.524;2023-12-07T00:59:38;16.15;;;5.32;;
69565;SDS011;56777;55.930;37.524;2023-12-07T01:02:04;16.65;;;6.82;;
69565;SDS011;56777;55.930;37.524;2023-12-07T01:04:30;11.70;;;5.00;;
69565;SDS011;56777;55.930;37.524;2023-12-07T01:06:56;14.23;;;6.65;;
69565;SDS011;56777;55.930;37.524;2023-12-07T01:09:22;16.92;;;7.32;;
69565;SDS011;56777;55.930;37.524;2023-12-07T01:11:48;15.02;;;5.90;;
69565;SDS011;56777;55.930;37.524;2023-12-07T01:14:14;15.85;;;6.68;;
69565;SDS011;56777;55.930;37.524;2023-12-07T01:16:40;15.27;;;5.60;;
69565;SDS011;56777;55.930;37.524;2023-12-07T01:19:06;19.25;;;6.43;;
69565;SDS011;56777;55.930;37.524;2023-12-07T01:21:32;16.73;;;7.18;;
69565;SDS011;56777;55.930;37.524;2023-12-07T01:23:58;16.30;;;6.07;;
69565;SDS011;56777;55.930;37.524;2023-12-07T01:26:24;11.25;;;5.35;;
69565;SDS011;56777;55.930;37.524;2023-12-07T01:28:49;16.63;;;7.05;;
69565;SDS011;56777;55.930;37.524;2023-12-07T01:31:15;17.45;;;7.57;;
69565;SDS011;56777;55.930;37.524;2023-12-07T01:33:42;13.43;;;6.38;;
69565;SDS011;56777;55.930;37.524;2023-12-07T01:36:08;14.70;;;6.30;;
69565;SDS011;56777;55.930;37.524;2023-12-07T01:38:34;14.95;;;6.18;;
69565;SDS011;56777;55.930;37.524;2023-12-07T01:40:59;13.07;;;6.60;;
69565;SDS011;56777;55.930;37.524;2023-12-07T01:43:25;15.32;;;5.75;;
69565;SDS011;56777;55.930;37.524;2023-12-07T01:45:51;15.82;;;5.93;;
69565;SDS011;56777;55.930;37.524;2023-12-07T01:48:20;13.27;;;6.35;;
69565;SDS011;56777;55.930;37.524;2023-12-07T01:50:48;16.90;;;6.65;;
69565;SDS011;56777;55.930;37.524;2023-12-07T01:53:13;14.18;;;7.15;;
69565;SDS011;56777;55.930;37.524;2023-12-07T01:55:41;14.00;;;6.68;;
69565;SDS011;56777;55.930;37.524;2023-12-07T01:58:07;14.68;;;6.45;;
69565;SDS011;56777;55.930;37.524;2023-12-07T02:00:33;13.60;;;7.15;;
69565;SDS011;56777;55.930;37.524;2023-12-07T02:03:03;15.07;;;7.28;;
69565;SDS011;56777;55.930;37.524;2023-12-07T02:05:32;12.52;;;5.88;;
69565;SDS011;56777;55.930;37.524;2023-12-07T02:07:58;18.27;;;9.18;;
69565;SDS011;56777;55.930;37.524;2023-12-07T02:10:24;16.50;;;7.28;;
69565;SDS011;56777;55.930;37.524;2023-12-07T02:12:50;17.60;;;8.30;;
69565;SDS011;56777;55.930;37.524;2023-12-07T02:15:18;19.60;;;7.22;;
69565;SDS011;56777;55.930;37.524;2023-12-07T02:20:33;14.70;;;6.65;;
69565;SDS011;56777;55.930;37.524;2023-12-07T02:23:20;15.00;;;6.70;;
69565;SDS011;56777;55.930;37.524;2023-12-07T02:28:50;13.98;;;6.50;;
69565;SDS011;56777;55.930;37.524;2023-12-07T02:31:17;13.02;;;5.70;;
69565;SDS011;56777;55.930;37.524;2023-12-07T02:33:42;18.52;;;8.57;;
69565;SDS011;56777;55.930;37.524;2023-12-07T02:36:08;21.02;;;11.05;;
69565;SDS011;56777;55.930;37.524;2023-12-07T02:38:34;18.38;;;8.77;;
69565;SDS011;56777;55.930;37.524;2023-12-07T02:41:02;19.40;;;8.32;;
69565;SDS011;56777;55.930;37.524;2023-12-07T02:43:28;18.35;;;9.05;;
69565;SDS011;56777;55.930;37.524;2023-12-07T02:45:54;20.98;;;9.68;;
69565;SDS011;56777;55.930;37.524;2023-12-07T02:48:20;15.23;;;6.55;;
69565;SDS011;56777;55.930;37.524;2023-12-07T02:50:46;19.15;;;8.35;;
69565;SDS011;56777;55.930;37.524;2023-12-07T02:53:12;20.67;;;9.80;;
69565;SDS011;56777;55.930;37.524;2023-12-07T02:55:38;23.65;;;8.93;;
69565;SDS011;56777;55.930;37.524;2023-12-07T02:58:03;18.45;;;7.28;;
69565;SDS011;56777;55.930;37.524;2023-12-07T03:00:29;21.90;;;8.60;;
69565;SDS011;56777;55.930;37.524;2023-12-07T03:02:55;21.92;;;8.82;;
69565;SDS011;56777;55.930;37.524;2023-12-07T03:05:20;25.58;;;11.05;;
69565;SDS011;56777;55.930;37.524;2023-12-07T03:07:48;19.42;;;9.65;;
69565;SDS011;56777;55.930;37.524;2023-12-07T03:10:13;26.05;;;11.23;;
69565;SDS011;56777;55.930;37.524;2023-12-07T03:12:39;25.88;;;10.80;;
69565;SDS011;56777;55.930;37.524;2023-12-07T03:15:05;24.73;;;9.80;;
69565;SDS011;56777;55.930;37.524;2023-12-07T03:17:31;26.63;;;12.40;;
69565;SDS011;56777;55.930;37.524;2023-12-07T03:19:56;23.30;;;10.02;;
69565;SDS011;56777;55.930;37.524;2023-12-07T03:22:22;20.35;;;10.30;;
69565;SDS011;56777;55.930;37.524;2023-12-07T03:24:49;22.05;;;9.10;;
69565;SDS011;56777;55.930;37.524;2023-12-07T03:27:17;19.50;;;7.75;;
69565;SDS011;56777;55.930;37.524;2023-12-07T03:29:43;23.83;;;10.38;;
69565;SDS011;56777;55.930;37.524;2023-12-07T03:32:08;26.58;;;12.93;;
69565;SDS011;56777;55.930;37.524;2023-12-07T03:34:34;23.67;;;10.93;;
69565;SDS011;56777;55.930;37.524;2023-12-07T03:36:59;24.27;;;11.50;;
69565;SDS011;56777;55.930;37.524;2023-12-07T03:39:25;23.83;;;11.60;;
69565;SDS011;56777;55.930;37.524;2023-12-07T03:41:51;26.20;;;12.88;;
69565;SDS011;56777;55.930;37.524;2023-12-07T03:44:17;21.55;;;10.88;;
69565;SDS011;56777;55.930;37.524;2023-12-07T03:46:42;22.20;;;11.32;;
69565;SDS011;56777;55.930;37.524;2023-12-07T03:49:08;19.80;;;9.65;;
69565;SDS011;56777;55.930;37.524;2023-12-07T03:51:34;21.15;;;9.38;;
69565;SDS011;56777;55.930;37.524;2023-12-07T03:54:01;16.20;;;7.97;;
69565;SDS011;56777;55.930;37.524;2023-12-07T03:56:28;21.52;;;9.98;;
69565;SDS011;56777;55.930;37.524;2023-12-07T03:58:55;22.63;;;10.38;;
69565;SDS011;56777;55.930;37.524;2023-12-07T04:01:24;25.08;;;11.18;;
69565;SDS011;56777;55.930;37.524;2023-12-07T04:03:51;20.70;;;10.88;;
69565;SDS011;56777;55.930;37.524;2023-12-07T04:06:17;20.25;;;10.60;;
69565;SDS011;56777;55.930;37.524;2023-12-07T04:08:43;23.00;;;11.20;;
69565;SDS011;56777;55.930;37.524;2023-12-07T04:11:09;16.42;;;7.95;;
69565;SDS011;56777;55.930;37.524;2023-12-07T04:13:35;24.05;;;12.23;;
69565;SDS011;56777;55.930;37.524;2023-12-07T04:16:00;18.48;;;9.50;;
69565;SDS011;56777;55.930;37.524;2023-12-07T04:18:26;25.13;;;12.00;;
69565;SDS011;56777;55.930;37.524;2023-12-07T04:20:52;24.88;;;9.88;;
69565;SDS011;56777;55.930;37.524;2023-12-07T04:23:17;21.95;;;10.48;;
69565;SDS011;56777;55.930;37.524;2023-12-07T04:25:43;23.42;;;12.80;;
69565;SDS011;56777;55.930;37.524;2023-12-07T04:28:08;23.17;;;10.13;;
69565;SDS011;56777;55.930;37.524;2023-12-07T04:30:34;23.00;;;9.77;;
69565;SDS011;56777;55.930;37.524;2023-12-07T04:32:59;25.98;;;11.70;;
69565;SDS011;56777;55.930;37.524;2023-12-07T04:35:25;28.88;;;13.35;;
69565;SDS011;56777;55.930;37.524;2023-12-07T04:37:50;26.02;;;10.60;;
69565;SDS011;56777;55.930;37.524;2023-12-07T04:40:16;24.70;;;9.77;;
69565;SDS011;56777;55.930;37.524;2023-12-07T04:42:42;20.10;;;8.95;;
69565;SDS011;56777;55.930;37.524;2023-12-07T04:45:08;21.42;;;10.65;;
69565;SDS011;56777;55.930;37.524;2023-12-07T04:47:33;23.05;;;10.38;;
69565;SDS011;56777;55.930;37.524;2023-12-07T04:49:59;22.05;;;10.32;;
69565;SDS011;56777;55.930;37.524;2023-12-07T04:52:25;25.85;;;13.77;;
69565;SDS011;56777;55.930;37.524;2023-12-07T04:54:50;26.80;;;14.10;;
69565;SDS011;56777;55.930;37.524;2023-12-07T04:57:16;22.05;;;10.32;;
69565;SDS011;56777;55.930;37.524;2023-12-07T04:59:41;24.85;;;10.55;;
69565;SDS011;56777;55.930;37.524;2023-12-07T05:02:12;26.42;;;12.57;;
69565;SDS011;56777;55.930;37.524;2023-12-07T05:04:41;29.17;;;11.15;;
69565;SDS011;56777;55.930;37.524;2023-12-07T05:07:07;23.50;;;11.93;;
69565;SDS011;56777;55.930;37.524;2023-12-07T05:09:33;25.65;;;10.88;;
69565;SDS011;56777;55.930;37.524;2023-12-07T05:11:59;23.08;;;11.45;;
69565;SDS011;56777;55.930;37.524;2023-12-07T05:14:24;27.80;;;13.15;;
69565;SDS011;56777;55.930;37.524;2023-12-07T05:16:50;25.13;;;11.40;;
69565;SDS011;56777;55.930;37.524;2023-12-07T05:19:20;23.75;;;11.43;;
69565;SDS011;56777;55.930;37.524;2023-12-07T05:21:47;21.33;;;9.55;;
69565;SDS011;56777;55.930;37.524;2023-12-07T05:24:12;22.98;;;12.15;;
69565;SDS011;56777;55.930;37.524;2023-12-07T05:26:40;25.88;;;12.18;;
69565;SDS011;56777;55.930;37.524;2023-12-07T05:29:07;25.45;;;12.52;;
69565;SDS011;56777;55.930;37.524;2023-12-07T05:31:33;21.98;;;10.35;;
69565;SDS011;56777;55.930;37.524;2023-12-07T05:34:00;21.67;;;11.90;;
69565;SDS011;56777;55.930;37.524;2023-12-07T05:36:26;24.27;;;11.80;;
69565;SDS011;56777;55.930;37.524;2023-12-07T05:38:51;25.13;;;13.18;;
69565;SDS011;56777;55.930;37.524;2023-12-07T05:41:17;23.70;;;11.85;;
69565;SDS011;56777;55.930;37.524;2023-12-07T05:43:43;18.40;;;9.27;;
69565;SDS011;56777;55.930;37.524;2023-12-07T05:46:08;23.50;;;10.80;;
69565;SDS011;56777;55.930;37.524;2023-12-07T05:48:34;19.33;;;8.93;;
69565;SDS011;56777;55.930;37.524;2023-12-07T05:51:01;26.90;;;12.80;;
69565;SDS011;56777;55.930;37.524;2023-12-07T05:53:27;27.00;;;12.57;;
69565;SDS011;56777;55.930;37.524;2023-12-07T05:55:53;29.45;;;16.00;;
69565;SDS011;56777;55.930;37.524;2023-12-07T05:58:19;21.77;;;10.13;;
69565;SDS011;56777;55.930;37.524;2023-12-07T06:00:45;24.25;;;13.70;;
69565;SDS011;56777;55.930;37.524;2023-12-07T06:03:12;27.08;;;14.63;;
69565;SDS011;56777;55.930;37.524;2023-12-07T06:05:38;23.70;;;10.77;;
69565;SDS011;56777;55.930;37.524;2023-12-07T06:08:05;22.55;;;12.77;;
69565;SDS011;56777;55.930;37.524;2023-12-07T06:10:31;21.95;;;11.32;;
69565;SDS011;56777;55.930;37.524;2023-12-07T06:12:57;18.83;;;11.02;;
69565;SDS011;56777;55.930;37.524;2023-12-07T06:15:26;24.48;;;11.73;;
69565;SDS011;56777;55.930;37.524;2023-12-07T06:17:55;20.75;;;11.32;;
69565;SDS011;56777;55.930;37.524;2023-12-07T06:20:22;24.00;;;10.82;;
69565;SDS011;56777;55.930;37.524;2023-12-07T06:22:48;24.63;;;11.10;;
69565;SDS011;56777;55.930;37.524;2023-12-07T06:25:13;21.42;;;11.63;;
69565;SDS011;56777;55.930;37.524;2023-12-07T06:27:40;24.90;;;11.55;;
69565;SDS011;56777;55.930;37.524;2023-12-07T06:30:05;17.83;;;8.45;;
69565;SDS011;56777;55.930;37.524;2023-12-07T06:32:32;19.80;;;9.25;;
69565;SDS011;56777;55.930;37.524;2023-12-07T06:34:58;23.70;;;11.27;;
69565;SDS011;56777;55.930;37.524;2023-12-07T06:37:23;19.58;;;10.45;;
69565;SDS011;56777;55.930;37.524;2023-12-07T06:39:49;20.80;;;10.65;;
69565;SDS011;56777;55.930;37.524;2023-12-07T06:42:15;19.20;;;8.52;;
69565;SDS011;56777;55.930;37.524;2023-12-07T06:44:47;22.73;;;12.20;;
69565;SDS011;56777;55.930;37.524;2023-12-07T06:47:16;18.35;;;8.65;;
69565;SDS011;56777;55.930;37.524;2023-12-07T06:49:43;20.55;;;10.55;;
69565;SDS011;56777;55.930;37.524;2023-12-07T06:52:09;18.38;;;9.23;;
69565;SDS011;56777;55.930;37.524;2023-12-07T06:54:36;23.70;;;12.35;;
69565;SDS011;56777;55.930;37.524;2023-12-07T06:57:02;21.17;;;9.95;;
69565;SDS011;56777;55.930;37.524;2023-12-07T06:59:28;24.63;;;12.15;;
69565;SDS011;56777;55.930;37.524;2023-12-07T07:01:53;23.00;;;11.38;;
69565;SDS011;56777;55.930;37.524;2023-12-07T07:04:19;19.00;;;10.13;;
69565;SDS011;56777;55.930;37.524;2023-12-07T07:06:45;21.77;;;11.88;;
69565;SDS011;56777;55.930;37.524;2023-12-07T07:09:10;20.20;;;12.00;;
69565;SDS011;56777;55.930;37.524;2023-12-07T07:11:37;18.52;;;10.55;;
69565;SDS011;56777;55.930;37.524;2023-12-07T07:14:03;21.20;;;12.48;;
69565;SDS011;56777;55.930;37.524;2023-12-07T07:16:30;19.50;;;11.40;;
69565;SDS011;56777;55.930;37.524;2023-12-07T07:18:55;23.20;;;11.30;;
69565;SDS011;56777;55.930;37.524;2023-12-07T07:21:21;19.55;;;9.43;;
69565;SDS011;56777;55.930;37.524;2023-12-07T07:23:46;19.33;;;10.43;;
69565;SDS011;56777;55.930;37.524;2023-12-07T07:26:12;19.27;;;11.77;;
69565;SDS011;56777;55.930;37.524;2023-12-07T07:28:42;19.65;;;9.52;;
69565;SDS011;56777;55.930;37.524;2023-12-07T07:31:08;16.63;;;9.57;;
69565;SDS011;56777;55.930;37.524;2023-12-07T07:33:33;17.60;;;9.52;;
69565;SDS011;56777;55.930;37.524;2023-12-07T07:35:59;24.25;;;13.32;;
69565;SDS011;56777;55.930;37.524;2023-12-07T07:38:24;18.48;;;9.30;;
69565;SDS011;56777;55.930;37.524;2023-12-07T07:40:50;20.85;;;9.13;;
69565;SDS011;56777;55.930;37.524;2023-12-07T07:43:15;23.10;;;11.05;;
69565;SDS011;56777;55.930;37.524;2023-12-07T07:45:41;18.38;;;11.70;;
69565;SDS011;56777;55.930;37.524;2023-12-07T07:48:07;17.95;;;9.60;;
69565;SDS011;56777;55.930;37.524;2023-12-07T07:50:32;22.50;;;10.57;;
69565;SDS011;56777;55.930;37.524;2023-12-07T07:53:00;19.15;;;7.70;;
69565;SDS011;56777;55.930;37.524;2023-12-07T07:55:26;19.52;;;10.27;;
69565;SDS011;56777;55.930;37.524;2023-12-07T07:57:52;19.13;;;10.15;;
69565;SDS011;56777;55.930;37.524;2023-12-07T08:00:17;17.42;;;9.43;;
69565;SDS011;56777;55.930;37.524;2023-12-07T08:02:44;22.35;;;13.30;;
69565;SDS011;56777;55.930;37.524;2023-12-07T08:05:09;19.85;;;11.95;;
69565;SDS011;56777;55.930;37.524;2023-12-07T08:07:36;17.95;;;10.52;;
69565;SDS011;56777;55.930;37.524;2023-12-07T08:10:02;15.70;;;7.30;;
69565;SDS011;56777;55.930;37.524;2023-12-07T08:12:28;19.10;;;9.88;;
69565;SDS011;56777;55.930;37.524;2023-12-07T08:14:54;19.33;;;9.25;;
69565;SDS011;56777;55.930;37.524;2023-12-07T08:17:19;21.98;;;9.65;;
69565;SDS011;56777;55.930;37.524;2023-12-07T08:19:46;17.40;;;9.85;;
69565;SDS011;56777;55.930;37.524;2023-12-07T08:22:12;16.08;;;8.38;;
69565;SDS011;56777;55.930;37.524;2023-12-07T08:24:39;17.95;;;8.52;;
69565;SDS011;56777;55.930;37.524;2023-12-07T08:27:05;20.67;;;10.18;;
69565;SDS011;56777;55.930;37.524;2023-12-07T08:29:30;22.00;;;11.57;;
69565;SDS011;56777;55.930;37.524;2023-12-07T08:31:56;18.20;;;9.45;;
69565;SDS011;56777;55.930;37.524;2023-12-07T08:34:21;19.60;;;10.65;;
69565;SDS011;56777;55.930;37.524;2023-12-07T08:36:47;20.27;;;9.98;;
69565;SDS011;56777;55.930;37.524;2023-12-07T08:39:12;21.77;;;10.80;;
69565;SDS011;56777;55.930;37.524;2023-12-07T08:41:38;17.80;;;9.00;;
69565;SDS011;56777;55.930;37.524;2023-12-07T08:44:04;19.63;;;11.50;;
69565;SDS011;56777;55.930;37.524;2023-12-07T08:46:30;20.58;;;10.30;;
69565;SDS011;56777;55.930;37.524;2023-12-07T08:48:55;18.52;;;8.90;;
69565;SDS011;56777;55.930;37.524;2023-12-07T08:51:22;17.83;;;8.93;;
69565;SDS011;56777;55.930;37.524;2023-12-07T08:53:49;16.52;;;8.55;;
69565;SDS011;56777;55.930;37.524;2023-12-07T08:56:16;18.98;;;9.23;;
69565;SDS011;56777;55.930;37.524;2023-12-07T08:58:42;18.08;;;9.82;;
69565;SDS011;56777;55.930;37.524;2023-12-07T09:01:09;16.88;;;8.68;;
69565;SDS011;56777;55.930;37.524;2023-12-07T09:03:35;18.35;;;9.82;;
69565;SDS011;56777;55.930;37.524;2023-12-07T09:06:02;17.38;;;7.95;;
69565;SDS011;56777;55.930;37.524;2023-12-07T09:08:28;19.95;;;11.05;;
69565;SDS011;56777;55.930;37.524;2023-12-07T09:10:54;19.83;;;9.23;;
69565;SDS011;56777;55.930;37.524;2023-12-07T09:13:19;18.00;;;10.25;;
69565;SDS011;56777;55.930;37.524;2023-12-07T09:15:45;18.73;;;12.00;;
69565;SDS011;56777;55.930;37.524;2023-12-07T09:18:10;14.93;;;6.57;;
69565;SDS011;56777;55.930;37.524;2023-12-07T09:20:36;17.05;;;9.50;;
69565;SDS011;56777;55.930;37.524;2023-12-07T09:23:02;19.17;;;10.68;;
69565;SDS011;56777;55.930;37.524;2023-12-07T09:25:29;14.05;;;9.38;;
69565;SDS011;56777;55.930;37.524;2023-12-07T09:27:56;18.67;;;9.52;;
69565;SDS011;56777;55.930;37.524;2023-12-07T09:30:21;18.67;;;10.90;;
69565;SDS011;56777;55.930;37.524;2023-12-07T09:32:47;18.02;;;9.45;;
69565;SDS011;56777;55.930;37.524;2023-12-07T09:35:13;14.85;;;8.85;;
69565;SDS011;56777;55.930;37.524;2023-12-07T09:37:40;16.55;;;9.57;;
69565;SDS011;56777;55.930;37.524;2023-12-07T09:40:06;19.70;;;9.20;;
69565;SDS011;56777;55.930;37.524;2023-12-07T09:42:32;14.77;;;9.50;;
69565;SDS011;56777;55.930;37.524;2023-12-07T09:44:58;15.30;;;9.70;;
69565;SDS011;56777;55.930;37.524;2023-12-07T09:47:27;13.20;;;7.47;;
69565;SDS011;56777;55.930;37.524;2023-12-07T09:49:55;13.85;;;7.53;;
69565;SDS011;56777;55.930;37.524;2023-12-07T09:52:22;16.65;;;8.73;;
69565;SDS011;56777;55.930;37.524;2023-12-07T09:54:49;16.23;;;8.82;;
69565;SDS011;56777;55.930;37.524;2023-12-07T09:57:16;18.10;;;10.57;;
69565;SDS011;56777;55.930;37.524;2023-12-07T09:59:42;17.75;;;9.90;;
69565;SDS011;56777;55.930;37.524;2023-12-07T10:02:07;15.90;;;10.00;;
69565;SDS011;56777;55.930;37.524;2023-12-07T10:04:33;13.88;;;7.60;;
69565;SDS011;56777;55.930;37.524;2023-12-07T10:06:59;10.45;;;6.28;;
69565;SDS011;56777;55.930;37.524;2023-12-07T10:09:25;16.80;;;8.48;;
69565;SDS011;56777;55.930;37.524;2023-12-07T10:12:01;17.38;;;9.55;;
69565;SDS011;56777;55.930;37.524;2023-12-07T10:14:30;17.80;;;9.45;;
69565;SDS011;56777;55.930;37.524;2023-12-07T10:16:56;19.42;;;9.95;;
69565;SDS011;56777;55.930;37.524;2023-12-07T10:19:22;18.58;;;10.25;;
69565;SDS011;56777;55.930;37.524;2023-12-07T10:21:50;18.73;;;11.13;;
69565;SDS011;56777;55.930;37.524;2023-12-07T10:24:17;22.20;;;11.02;;
69565;SDS011;56777;55.930;37.524;2023-12-07T10:26:44;18.45;;;10.48;;
69565;SDS011;56777;55.930;37.524;2023-12-07T10:29:11;17.13;;;10.65;;
69565;SDS011;56777;55.930;37.524;2023-12-07T10:31:37;19.65;;;9.40;;
69565;SDS011;56777;55.930;37.524;2023-12-07T10:34:03;17.55;;;9.10;;
69565;SDS011;56777;55.930;37.524;2023-12-07T10:36:30;17.42;;;9.05;;
69565;SDS011;56777;55.930;37.524;2023-12-07T10:38:56;17.48;;;10.32;;
69565;SDS011;56777;55.930;37.524;2023-12-07T10:41:22;19.05;;;10.13;;
69565;SDS011;56777;55.930;37.524;2023-12-07T10:43:51;19.38;;;10.70;;
69565;SDS011;56777;55.930;37.524;2023-12-07T10:46:19;17.65;;;10.02;;
69565;SDS011;56777;55.930;37.524;2023-12-07T10:48:47;16.05;;;7.75;;
69565;SDS011;56777;55.930;37.524;2023-12-07T10:51:27;15.98;;;7.95;;
69565;SDS011;56777;55.930;37.524;2023-12-07T10:53:56;18.70;;;9.98;;
69565;SDS011;56777;55.930;37.524;2023-12-07T10:56:28;15.52;;;9.13;;
69565;SDS011;56777;55.930;37.524;2023-12-07T10:58:58;17.25;;;9.45;;
69565;SDS011;56777;55.930;37.524;2023-12-07T11:01:24;17.58;;;10.55;;
69565;SDS011;56777;55.930;37.524;2023-12-07T11:03:51;16.92;;;9.35;;
69565;SDS011;56777;55.930;37.524;2023-12-07T11:06:18;14.50;;;8.30;;
69565;SDS011;56777;55.930;37.524;2023-12-07T11:08:51;16.10;;;8.73;;
69565;SDS011;56777;55.930;37.524;2023-12-07T11:11:24;13.50;;;8.30;;
69565;SDS011;56777;55.930;37.524;2023-12-07T11:14:05;14.90;;;9.02;;
69565;SDS011;56777;55.930;37.524;2023-12-07T11:16:32;12.55;;;7.18;;
69565;SDS011;56777;55.930;37.524;2023-12-07T11:19:01;16.98;;;9.00;;
69565;SDS011;56777;55.930;37.524;2023-12-07T11:21:26;14.18;;;7.50;;
69565;SDS011;56777;55.930;37.524;2023-12-07T11:23:53;17.27;;;9.23;;
69565;SDS011;56777;55.930;37.524;2023-12-07T11:26:22;17.65;;;9.45;;
69565;SDS011;56777;55.930;37.524;2023-12-07T11:28:49;14.85;;;8.80;;
69565;SDS011;56777;55.930;37.524;2023-12-07T11:31:16;15.18;;;8.10;;
69565;SDS011;56777;55.930;37.524;2023-12-07T11:33:42;17.30;;;10.50;;
69565;SDS011;56777;55.930;37.524;2023-12-07T11:36:08;14.75;;;8.23;;
69565;SDS011;56777;55.930;37.524;2023-12-07T11:38:38;13.68;;;9.18;;
69565;SDS011;56777;55.930;37.524;2023-12-07T11:41:23;16.45;;;9.30;;
69565;SDS011;56777;55.930;37.524;2023-12-07T11:43:49;14.68;;;8.80;;
69565;SDS011;56777;55.930;37.524;2023-12-07T11:46:18;13.80;;;8.23;;
69565;SDS011;56777;55.930;37.524;2023-12-07T11:48:47;16.90;;;9.60;;
69565;SDS011;56777;55.930;37.524;2023-12-07T11:51:15;16.48;;;8.93;;
69565;SDS011;56777;55.930;37.524;2023-12-07T11:53:41;15.40;;;9.38;;
69565;SDS011;56777;55.930;37.524;2023-12-07T11:56:09;15.18;;;7.93;;
69565;SDS011;56777;55.930;37.524;2023-12-07T11:58:37;21.00;;;8.45;;
69565;SDS011;56777;55.930;37.524;2023-12-07T12:01:03;16.88;;;11.88;;
69565;SDS011;56777;55.930;37.524;2023-12-07T12:03:30;16.13;;;8.13;;
69565;SDS011;56777;55.930;37.524;2023-12-07T12:06:02;14.90;;;8.93;;
69565;SDS011;56777;55.930;37.524;2023-12-07T12:08:30;13.68;;;7.57;;
69565;SDS011;56777;55.930;37.524;2023-12-07T12:10:56;14.38;;;8.52;;
69565;SDS011;56777;55.930;37.524;2023-12-07T12:13:30;17.77;;;8.10;;
69565;SDS011;56777;55.930;37.524;2023-12-07T12:15:58;15.85;;;9.57;;
69565;SDS011;56777;55.930;37.524;2023-12-07T12:18:25;14.57;;;9.10;;
69565;SDS011;56777;55.930;37.524;2023-12-07T12:20:52;16.90;;;9.80;;
69565;SDS011;56777;55.930;37.524;2023-12-07T12:23:18;15.70;;;9.07;;
69565;SDS011;56777;55.930;37.524;2023-12-07T12:25:44;15.70;;;9.02;;
69565;SDS011;56777;55.930;37.524;2023-12-07T12:28:10;14.93;;;8.23;;
69565;SDS011;56777;55.930;37.524;2023-12-07T12:30:40;17.55;;;11.13;;
69565;SDS011;56777;55.930;37.524;2023-12-07T12:33:07;20.67;;;10.30;;
69565;SDS011;56777;55.930;37.524;2023-12-07T12:35:32;18.08;;;10.90;;
69565;SDS011;56777;55.930;37.524;2023-12-07T12:37:58;16.70;;;8.00;;
69565;SDS011;56777;55.930;37.524;2023-12-07T12:40:26;15.98;;;8.88;;
69565;SDS011;56777;55.930;37.524;2023-12-07T12:42:54;16.15;;;7.72;;
69565;SDS011;56777;55.930;37.524;2023-12-07T12:45:20;17.88;;;9.18;;
69565;SDS011;56777;55.930;37.524;2023-12-07T12:47:46;18.10;;;9.73;;
69565;SDS011;56777;55.930;37.524;2023-12-07T12:50:32;17.55;;;9.32;;
69565;SDS011;56777;55.930;37.524;2023-12-07T12:53:10;13.45;;;6.72;;
69565;SDS011;56777;55.930;37.524;2023-12-07T12:55:36;15.25;;;8.43;;
69565;SDS011;56777;55.930;37.524;2023-12-07T12:58:08;15.07;;;7.90;;
69565;SDS011;56777;55.930;37.524;2023-12-07T13:00:38;16.60;;;9.40;;
69565;SDS011;56777;55.930;37.524;2023-12-07T13:03:05;16.23;;;8.43;;
69565;SDS011;56777;55.930;37.524;2023-12-07T13:05:31;16.10;;;8.60;;
69565;SDS011;56777;55.930;37.524;2023-12-07T13:07:59;15.00;;;8.32;;
69565;SDS011;56777;55.930;37.524;2023-12-07T13:10:25;16.17;;;7.97;;
69565;SDS011;56777;55.930;37.524;2023-12-07T13:12:51;16.58;;;8.73;;
69565;SDS011;56777;55.930;37.524;2023-12-07T13:15:16;14.80;;;8.68;;
69565;SDS011;56777;55.930;37.524;2023-12-07T13:17:42;16.35;;;8.85;;
69565;SDS011;56777;55.930;37.524;2023-12-07T13:20:08;16.70;;;9.93;;
69565;SDS011;56777;55.930;37.524;2023-12-07T13:22:40;18.52;;;11.35;;
69565;SDS011;56777;55.930;37.524;2023-12-07T13:25:08;18.13;;;9.30;;
69565;SDS011;56777;55.930;37.524;2023-12-07T13:27:34;16.77;;;9.70;;
69565;SDS011;56777;55.930;37.524;2023-12-07T13:30:01;16.45;;;9.88;;
69565;SDS011;56777;55.930;37.524;2023-12-07T13:32:34;15.55;;;8.75;;
69565;SDS011;56777;55.930;37.524;2023-12-07T13:35:02;15.90;;;9.07;;
69565;SDS011;56777;55.930;37.524;2023-12-07T13:37:28;17.60;;;9.48;;
69565;SDS011;56777;55.930;37.524;2023-12-07T13:39:54;16.77;;;8.48;;
69565;SDS011;56777;55.930;37.524;2023-12-07T13:42:26;13.88;;;7.10;;
69565;SDS011;56777;55.930;37.524;2023-12-07T13:47:25;14.45;;;6.28;;
69565;SDS011;56777;55.930;37.524;2023-12-07T13:49:54;17.60;;;7.93;;
69565;SDS011;56777;55.930;37.524;2023-12-07T13:52:21;20.35;;;10.48;;
69565;SDS011;56777;55.930;37.524;2023-12-07T13:54:46;18.80;;;10.52;;
69565;SDS011;56777;55.930;37.524;2023-12-07T13:57:13;17.80;;;9.45;;
69565;SDS011;56777;55.930;37.524;2023-12-07T13:59:39;20.05;;;11.23;;
69565;SDS011;56777;55.930;37.524;2023-12-07T14:02:06;19.65;;;9.65;;
69565;SDS011;56777;55.930;37.524;2023-12-07T14:04:32;19.80;;;10.52;;
69565;SDS011;56777;55.930;37.524;2023-12-07T14:07:08;22.42;;;11.75;;
69565;SDS011;56777;55.930;37.524;2023-12-07T14:09:35;22.58;;;11.68;;
69565;SDS011;56777;55.930;37.524;2023-12-07T14:12:01;19.70;;;9.70;;
69565;SDS011;56777;55.930;37.524;2023-12-07T14:14:27;20.08;;;10.40;;
69565;SDS011;56777;55.930;37.524;2023-12-07T14:16:53;25.23;;;13.65;;
69565;SDS011;56777;55.930;37.524;2023-12-07T14:19:19;26.13;;;11.43;;
69565;SDS011;56777;55.930;37.524;2023-12-07T14:21:45;21.48;;;10.68;;